Time;durP1;ratioP1;P1;durP2;ratioP2;P2;SDS_P1;SDS_P2;PMS_P1;PMS_P2;Temp;Humidity;BMP_temperature;BMP_pressure;BME280_temperature;BME280_humidity;BME280_pressure;Samples;Min_cycle;Max_cycle;Signal;HPM_P1;HPM_P2
2021/10/16 00:00:05;;;;;;;1.47;0.70;;;10.70;99.90;;;;;;5094323;28;20886;-61
2021/10/16 00:02:35;;;;;;;1.77;0.80;;;10.70;99.90;;;;;;5094719;28;20448;-61
2021/10/16 00:05:10;;;;;;;1.57;0.70;;;10.70;99.90;;;;;;5096689;28;20446;-60
2021/10/16 00:07:40;;;;;;;1.73;0.80;;;10.60;99.90;;;;;;5095653;28;20445;-61
2021/10/16 00:10:11;;;;;;;1.20;0.80;;;10.60;99.90;;;;;;5096590;28;20450;-60
2021/10/16 00:12:41;;;;;;;1.80;0.80;;;10.60;99.90;;;;;;5097219;28;20488;-61
2021/10/16 00:15:12;;;;;;;1.80;0.70;;;10.60;99.90;;;;;;5096321;28;20473;-60
2021/10/16 00:17:50;;;;;;;1.40;0.90;;;10.70;99.90;;;;;;5097557;28;20992;-61
2021/10/16 00:20:24;;;;;;;1.17;0.80;;;10.70;99.90;;;;;;5097053;28;20445;-61
2021/10/16 00:22:56;;;;;;;1.80;0.87;;;10.70;99.90;;;;;;5095150;28;20453;-61
2021/10/16 00:25:29;;;;;;;1.37;0.83;;;10.70;99.90;;;;;;5095408;28;20441;-61
2021/10/16 00:27:59;;;;;;;1.30;0.80;;;10.70;99.90;;;;;;5095883;28;20748;-61
2021/10/16 00:30:34;;;;;;;1.87;0.80;;;10.70;99.90;;;;;;5096763;28;20453;-61
2021/10/16 00:33:01;;;;;;;1.57;0.80;;;10.70;99.90;;;;;;5096778;28;20536;-61
2021/10/16 00:35:32;;;;;;;1.60;0.70;;;10.60;99.90;;;;;;5095457;28;20475;-61
2021/10/16 00:38:06;;;;;;;2.43;0.90;;;10.60;99.90;;;;;;5096924;28;20446;-61
2021/10/16 00:40:39;;;;;;;1.77;0.80;;;10.60;99.90;;;;;;5097784;28;20763;-61
2021/10/16 00:43:06;;;;;;;1.70;0.80;;;10.60;99.90;;;;;;5097469;28;20710;-60
2021/10/16 00:45:36;;;;;;;2.90;0.93;;;10.60;99.90;;;;;;5097213;28;20460;-61
2021/10/16 00:48:05;;;;;;;3.30;0.80;;;10.50;99.90;;;;;;5096888;28;20450;-60
2021/10/16 00:50:42;;;;;;;3.43;0.87;;;10.40;99.90;;;;;;5097255;28;20449;-60
2021/10/16 00:53:13;;;;;;;2.00;0.90;;;10.30;99.90;;;;;;5097946;28;20526;-60
2021/10/16 00:55:43;;;;;;;2.63;1.00;;;10.30;99.90;;;;;;5096830;28;20814;-61
2021/10/16 00:58:19;;;;;;;2.10;0.73;;;10.40;99.90;;;;;;5096173;28;20545;-61
2021/10/16 01:00:47;;;;;;;1.20;0.80;;;10.50;99.90;;;;;;5094495;28;20463;-61
2021/10/16 01:03:15;;;;;;;1.30;0.90;;;10.60;99.90;;;;;;5095032;28;20525;-61
2021/10/16 01:05:45;;;;;;;2.20;0.80;;;10.70;99.90;;;;;;5096375;28;20461;-61
2021/10/16 01:08:12;;;;;;;1.90;0.90;;;10.70;99.90;;;;;;5097019;28;20445;-61
2021/10/16 01:10:45;;;;;;;2.10;0.87;;;10.70;99.90;;;;;;5096606;28;20760;-60
2021/10/16 01:13:16;;;;;;;1.60;1.00;;;10.80;99.90;;;;;;5097215;28;20751;-61
2021/10/16 01:15:46;;;;;;;2.90;0.90;;;10.80;99.90;;;;;;5095791;28;20481;-61
2021/10/16 01:18:16;;;;;;;0.80;0.60;;;10.80;99.90;;;;;;5096614;28;20549;-61
2021/10/16 01:20:48;;;;;;;1.20;0.80;;;10.80;99.90;;;;;;5097344;28;20540;-61
2021/10/16 01:23:18;;;;;;;1.90;0.97;;;10.80;99.90;;;;;;5097790;28;20461;-61
2021/10/16 01:25:46;;;;;;;1.23;0.90;;;10.80;99.90;;;;;;5096713;28;20895;-61
2021/10/16 01:28:19;;;;;;;1.93;0.80;;;10.80;99.90;;;;;;5096526;28;20487;-61
2021/10/16 01:30:46;;;;;;;2.80;0.90;;;10.90;99.90;;;;;;5096916;28;20460;-61
2021/10/16 01:33:14;;;;;;;1.93;0.77;;;10.90;99.90;;;;;;5097058;28;20449;-61
2021/10/16 01:35:41;;;;;;;1.50;1.00;;;10.80;99.90;;;;;;5096954;28;20830;-60
2021/10/16 01:38:08;;;;;;;4.63;1.10;;;10.80;99.90;;;;;;5097268;28;20460;-61
2021/10/16 01:40:37;;;;;;;2.27;1.10;;;10.90;99.90;;;;;;5097313;28;20453;-61
2021/10/16 01:43:07;;;;;;;1.77;1.17;;;10.80;99.90;;;;;;5097074;28;20466;-61
2021/10/16 01:45:37;;;;;;;2.30;1.30;;;10.70;99.90;;;;;;5095835;28;20511;-60
2021/10/16 01:48:04;;;;;;;2.37;0.90;;;10.70;99.90;;;;;;5096602;28;20452;-61
2021/10/16 01:50:38;;;;;;;1.83;1.00;;;10.60;99.90;;;;;;5095775;28;20490;-60
2021/10/16 01:53:09;;;;;;;1.60;0.90;;;10.60;99.90;;;;;;5095914;28;20491;-61
2021/10/16 01:55:40;;;;;;;4.30;1.00;;;10.70;99.90;;;;;;5094439;28;20457;-61
2021/10/16 01:58:11;;;;;;;7.20;1.10;;;10.60;99.90;;;;;;5094775;28;20449;-61
2021/10/16 02:00:39;;;;;;;3.50;0.93;;;10.60;99.90;;;;;;5095533;28;20453;-61
2021/10/16 02:03:08;;;;;;;2.13;1.13;;;10.70;99.90;;;;;;5095642;28;20448;-61
2021/10/16 02:05:36;;;;;;;1.87;1.20;;;10.80;99.90;;;;;;5094356;28;20461;-61
2021/10/16 02:08:03;;;;;;;3.40;1.20;;;10.90;99.90;;;;;;5093595;28;20472;-61
2021/10/16 02:10:30;;;;;;;3.93;1.30;;;10.90;99.90;;;;;;5093687;28;20563;-61
2021/10/16 02:12:59;;;;;;;4.20;2.07;;;10.90;99.90;;;;;;5093791;28;20928;-61
2021/10/16 02:15:26;;;;;;;5.10;1.87;;;10.90;99.90;;;;;;5093816;28;20491;-61
2021/10/16 02:17:53;;;;;;;2.00;1.13;;;10.80;99.90;;;;;;5094500;28;20433;-60
2021/10/16 02:20:20;;;;;;;3.13;1.70;;;10.80;99.90;;;;;;5094170;28;20915;-60
2021/10/16 02:22:48;;;;;;;3.17;1.33;;;10.80;99.90;;;;;;5093327;28;20549;-61
2021/10/16 02:25:15;;;;;;;2.70;1.53;;;10.70;99.90;;;;;;5093524;28;20857;-61
2021/10/16 02:27:42;;;;;;;8.90;1.40;;;10.70;99.90;;;;;;5093842;28;20608;-60
2021/10/16 02:30:11;;;;;;;2.93;1.30;;;10.70;99.90;;;;;;5094697;28;20537;-60
2021/10/16 02:32:38;;;;;;;3.80;1.27;;;10.70;99.90;;;;;;5095643;28;20482;-61
2021/10/16 02:35:07;;;;;;;2.10;1.10;;;10.70;99.90;;;;;;5096158;28;20536;-60
2021/10/16 02:37:34;;;;;;;3.37;1.40;;;10.70;99.90;;;;;;5094900;28;20520;-60
2021/10/16 02:40:01;;;;;;;2.50;1.20;;;10.80;99.90;;;;;;5095008;28;20448;-61
2021/10/16 02:42:29;;;;;;;2.13;1.10;;;11.00;99.90;;;;;;5094749;28;20460;-61
2021/10/16 02:44:57;;;;;;;4.87;1.20;;;10.90;99.90;;;;;;5094051;28;20453;-61
2021/10/16 02:47:30;;;;;;;2.20;1.20;;;11.00;99.90;;;;;;5093697;28;20465;-61
2021/10/16 02:49:58;;;;;;;2.30;1.57;;;11.00;99.90;;;;;;5094034;28;20450;-61
2021/10/16 02:52:25;;;;;;;2.60;1.60;;;11.00;99.90;;;;;;5095326;28;20515;-61
2021/10/16 02:54:52;;;;;;;2.10;1.23;;;11.00;99.90;;;;;;5094376;28;20846;-62
2021/10/16 02:57:19;;;;;;;3.53;1.40;;;11.10;99.90;;;;;;5094203;28;20460;-60
2021/10/16 02:59:46;;;;;;;3.70;1.73;;;11.00;99.90;;;;;;5092948;28;20446;-60
2021/10/16 03:02:14;;;;;;;4.50;1.60;;;11.00;99.90;;;;;;5092967;28;20449;-61
2021/10/16 03:04:42;;;;;;;4.10;1.60;;;11.10;99.90;;;;;;5096847;28;20802;-61
2021/10/16 03:07:09;;;;;;;1.63;1.10;;;11.10;99.90;;;;;;5097112;28;20907;-61
2021/10/16 03:09:36;;;;;;;3.63;1.80;;;11.10;99.90;;;;;;5097772;28;20468;-61
2021/10/16 03:12:04;;;;;;;1.90;1.30;;;11.10;99.90;;;;;;5097670;28;20521;-60
2021/10/16 03:14:32;;;;;;;4.93;2.10;;;11.10;99.90;;;;;;5097810;28;20473;-61
2021/10/16 03:16:59;;;;;;;6.47;2.17;;;11.00;99.90;;;;;;5098589;28;20495;-62
2021/10/16 03:19:26;;;;;;;5.03;2.47;;;10.90;99.90;;;;;;5096779;28;20441;-61
2021/10/16 03:21:56;;;;;;;6.90;2.93;;;10.90;99.90;;;;;;5095444;28;20449;-60
2021/10/16 03:24:23;;;;;;;8.53;2.87;;;10.90;99.90;;;;;;5096979;28;20884;-60
2021/10/16 03:26:50;;;;;;;7.23;4.43;;;10.90;99.90;;;;;;5097640;28;20455;-60
2021/10/16 03:29:18;;;;;;;9.33;3.43;;;10.90;99.90;;;;;;5096223;28;20445;-61
2021/10/16 03:31:45;;;;;;;7.90;3.77;;;10.90;99.90;;;;;;5096380;28;20477;-60
2021/10/16 03:34:13;;;;;;;8.33;3.67;;;10.80;99.90;;;;;;5096345;28;20446;-61
2021/10/16 03:36:40;;;;;;;8.23;4.73;;;10.80;99.90;;;;;;5096988;28;20457;-60
2021/10/16 03:39:09;;;;;;;8.27;4.20;;;10.70;99.90;;;;;;5098164;28;20539;-61
2021/10/16 03:41:36;;;;;;;3.77;1.93;;;10.80;99.90;;;;;;5098028;28;20765;-61
2021/10/16 03:44:03;;;;;;;4.43;1.97;;;10.70;99.90;;;;;;5098145;28;20754;-61
2021/10/16 03:46:30;;;;;;;5.27;2.07;;;10.70;99.90;;;;;;5099817;28;20453;-60
2021/10/16 03:48:58;;;;;;;6.00;1.57;;;10.70;99.90;;;;;;5098059;28;20449;-61
2021/10/16 03:51:25;;;;;;;3.13;1.27;;;10.80;99.90;;;;;;5098265;28;20457;-60
2021/10/16 03:53:52;;;;;;;5.20;1.80;;;10.90;99.90;;;;;;5098265;28;20934;-61
2021/10/16 03:56:20;;;;;;;2.37;1.53;;;10.90;99.90;;;;;;5098188;28;20910;-61
2021/10/16 03:58:48;;;;;;;2.10;1.53;;;10.90;99.90;;;;;;5098169;28;20449;-61
2021/10/16 04:01:15;;;;;;;2.63;1.50;;;11.00;99.90;;;;;;5098203;28;20453;-61
2021/10/16 04:03:42;;;;;;;2.30;1.40;;;10.90;99.90;;;;;;5097828;28;20480;-59
2021/10/16 04:06:09;;;;;;;4.43;2.07;;;10.90;99.90;;;;;;5098087;28;20552;-58
2021/10/16 04:08:37;;;;;;;6.07;3.03;;;10.80;99.90;;;;;;5096971;28;20450;-60
2021/10/16 04:11:04;;;;;;;4.67;2.23;;;10.80;99.90;;;;;;5096554;28;20449;-60
2021/10/16 04:13:32;;;;;;;6.20;2.70;;;10.80;99.90;;;;;;5096285;28;20486;-59
2021/10/16 04:16:00;;;;;;;8.10;2.20;;;10.80;99.90;;;;;;5096260;28;20487;-60
2021/10/16 04:18:27;;;;;;;7.10;3.40;;;10.90;99.90;;;;;;5096245;28;20446;-60
2021/10/16 04:20:54;;;;;;;6.37;1.90;;;10.90;99.90;;;;;;5094441;28;20628;-60
2021/10/16 04:23:21;;;;;;;5.93;3.20;;;10.90;99.90;;;;;;5096186;28;20434;-60
2021/10/16 04:25:48;;;;;;;4.70;2.63;;;10.90;99.90;;;;;;5096049;28;20450;-60
2021/10/16 04:28:16;;;;;;;5.63;2.33;;;10.90;99.90;;;;;;5095647;28;20453;-59
2021/10/16 04:30:44;;;;;;;3.20;1.60;;;10.80;99.90;;;;;;5095862;28;20457;-60
2021/10/16 04:33:11;;;;;;;3.40;1.87;;;10.70;99.90;;;;;;5094404;28;20476;-59
2021/10/16 04:35:41;;;;;;;5.23;1.60;;;10.70;99.90;;;;;;5095067;28;20544;-60
2021/10/16 04:38:08;;;;;;;3.60;2.30;;;10.70;99.90;;;;;;5095493;28;20445;-59
2021/10/16 04:40:37;;;;;;;6.60;2.53;;;10.60;99.90;;;;;;5096117;28;20454;-59
2021/10/16 04:43:06;;;;;;;5.23;2.57;;;10.60;99.90;;;;;;5095193;28;20456;-60
2021/10/16 04:45:33;;;;;;;6.10;2.63;;;10.50;99.90;;;;;;5095019;28;20458;-59
2021/10/16 04:48:02;;;;;;;3.33;2.20;;;10.40;99.90;;;;;;5097340;28;20452;-59
2021/10/16 04:50:29;;;;;;;7.27;3.27;;;10.50;99.90;;;;;;5097090;28;20453;-59
2021/10/16 04:52:57;;;;;;;4.10;2.20;;;10.60;99.90;;;;;;5096710;28;20477;-59
2021/10/16 04:55:24;;;;;;;4.83;2.43;;;10.70;99.90;;;;;;5097165;28;20461;-59
2021/10/16 04:57:51;;;;;;;5.37;2.57;;;10.70;99.90;;;;;;5097612;28;20452;-60
2021/10/16 05:00:18;;;;;;;4.50;2.00;;;10.70;99.90;;;;;;5097892;28;20524;-59
2021/10/16 05:02:46;;;;;;;4.93;2.10;;;10.80;99.90;;;;;;5096838;28;20741;-60
2021/10/16 05:05:14;;;;;;;3.97;2.43;;;10.90;99.90;;;;;;5097566;28;20448;-60
2021/10/16 05:07:42;;;;;;;7.73;3.40;;;10.90;99.90;;;;;;5097766;28;20554;-59
2021/10/16 05:10:09;;;;;;;5.67;2.50;;;10.90;99.90;;;;;;5096517;28;20446;-60
2021/10/16 05:12:36;;;;;;;5.30;2.00;;;10.80;99.90;;;;;;5096180;28;20476;-59
2021/10/16 05:15:04;;;;;;;5.27;3.30;;;10.80;99.90;;;;;;5095374;28;20572;-59
2021/10/16 05:17:31;;;;;;;6.37;3.00;;;10.80;99.90;;;;;;5095035;28;20450;-59
2021/10/16 05:19:58;;;;;;;7.00;3.13;;;10.90;99.90;;;;;;5096790;28;20532;-59
2021/10/16 05:22:27;;;;;;;7.07;3.33;;;11.00;99.90;;;;;;5097327;28;20547;-60
2021/10/16 05:24:54;;;;;;;8.63;5.33;;;11.00;99.90;;;;;;5096145;28;20445;-59
2021/10/16 05:27:21;;;;;;;8.60;3.30;;;11.00;99.90;;;;;;5094176;28;20762;-59
2021/10/16 05:29:49;;;;;;;9.40;3.50;;;11.10;99.90;;;;;;5093984;28;20456;-59
2021/10/16 05:32:16;;;;;;;10.27;4.77;;;11.10;99.90;;;;;;5097223;28;20492;-60
2021/10/16 05:34:43;;;;;;;4.97;2.47;;;11.00;99.90;;;;;;5097769;28;20442;-59
2021/10/16 05:37:11;;;;;;;4.50;1.80;;;10.80;99.90;;;;;;5096840;28;20898;-59
2021/10/16 05:39:40;;;;;;;5.37;2.53;;;10.60;99.90;;;;;;5096455;28;20445;-59
2021/10/16 05:42:07;;;;;;;4.03;2.27;;;10.50;99.90;;;;;;5095211;28;20747;-59
2021/10/16 05:44:35;;;;;;;6.97;2.50;;;10.30;99.90;;;;;;5096513;28;20536;-59
2021/10/16 05:47:02;;;;;;;3.50;2.20;;;10.20;99.90;;;;;;5096980;28;20962;-59
2021/10/16 05:49:29;;;;;;;2.63;1.57;;;10.10;99.90;;;;;;5096044;28;20450;-59
2021/10/16 05:51:56;;;;;;;4.10;2.37;;;10.00;99.90;;;;;;5095850;28;20457;-61
2021/10/16 05:54:24;;;;;;;4.47;1.70;;;10.10;99.90;;;;;;5096024;28;20481;-59
2021/10/16 05:56:52;;;;;;;4.30;1.90;;;10.30;99.90;;;;;;5096764;28;20800;-59
2021/10/16 05:59:19;;;;;;;4.83;2.17;;;10.50;99.90;;;;;;5095420;28;20446;-59
2021/10/16 06:01:47;;;;;;;2.43;1.40;;;10.60;99.90;;;;;;5093774;28;20458;-60
2021/10/16 06:04:14;;;;;;;3.60;1.53;;;10.60;99.90;;;;;;5094017;28;20897;-60
2021/10/16 06:06:44;;;;;;;5.40;1.63;;;10.70;99.90;;;;;;5092603;28;20739;-60
2021/10/16 06:09:11;;;;;;;2.83;1.43;;;10.80;99.90;;;;;;5093201;28;20460;-60
2021/10/16 06:11:39;;;;;;;3.10;1.93;;;10.70;99.90;;;;;;5093406;28;20449;-60
2021/10/16 06:14:07;;;;;;;2.50;1.43;;;10.60;99.90;;;;;;5092922;28;20477;-60
2021/10/16 06:16:34;;;;;;;3.27;1.30;;;10.30;99.90;;;;;;5092330;28;20899;-60
2021/10/16 06:19:04;;;;;;;4.00;1.70;;;10.20;99.90;;;;;;5093085;28;20459;-60
2021/10/16 06:21:32;;;;;;;2.47;1.33;;;10.30;99.90;;;;;;5094881;28;20457;-60
2021/10/16 06:23:59;;;;;;;2.67;1.83;;;10.50;99.90;;;;;;5094824;28;20444;-60
2021/10/16 06:26:26;;;;;;;3.80;1.50;;;10.80;99.90;;;;;;5095324;28;20919;-60
2021/10/16 06:28:53;;;;;;;4.37;1.87;;;11.00;99.90;;;;;;5095144;28;20469;-60
2021/10/16 06:31:22;;;;;;;2.33;1.53;;;10.90;99.90;;;;;;5094635;28;20453;-61
2021/10/16 06:33:49;;;;;;;2.20;1.50;;;10.80;99.90;;;;;;5094947;28;20477;-59
2021/10/16 06:36:16;;;;;;;4.50;1.37;;;10.60;99.90;;;;;;5094073;28;20881;-61
2021/10/16 06:38:43;;;;;;;4.47;1.80;;;10.50;99.90;;;;;;5094241;28;20464;-61
2021/10/16 06:41:11;;;;;;;2.43;1.23;;;10.40;99.90;;;;;;5093117;28;20449;-61
2021/10/16 06:43:38;;;;;;;2.43;1.30;;;10.50;99.90;;;;;;5094548;28;20757;-60
2021/10/16 06:46:05;;;;;;;2.10;1.37;;;10.60;99.90;;;;;;5093545;28;20453;-61
2021/10/16 06:48:34;;;;;;;3.37;1.63;;;10.90;99.90;;;;;;5093549;28;20452;-60
2021/10/16 06:51:01;;;;;;;4.43;1.93;;;10.90;99.90;;;;;;5092995;28;20457;-60
2021/10/16 06:53:28;;;;;;;3.17;1.70;;;10.80;99.90;;;;;;5092373;28;20577;-60
2021/10/16 06:55:55;;;;;;;2.97;1.40;;;10.60;99.90;;;;;;5092252;28;20767;-60
2021/10/16 06:58:22;;;;;;;3.40;2.20;;;10.30;99.90;;;;;;5094655;28;20477;-58
2021/10/16 07:00:50;;;;;;;2.77;1.70;;;10.20;99.90;;;;;;5094162;28;20457;-58
2021/10/16 07:03:17;;;;;;;2.80;1.90;;;10.10;99.90;;;;;;5094109;28;20542;-57
2021/10/16 07:05:46;;;;;;;3.23;2.07;;;10.20;99.90;;;;;;5094672;28;20453;-58
2021/10/16 07:08:13;;;;;;;3.00;1.50;;;10.20;99.90;;;;;;5094955;28;20536;-56
2021/10/16 07:10:41;;;;;;;4.10;1.83;;;10.20;99.90;;;;;;5093450;28;20446;-58
2021/10/16 07:13:10;;;;;;;4.83;1.40;;;10.20;99.90;;;;;;5091864;28;20481;-59
2021/10/16 07:15:38;;;;;;;3.13;1.83;;;10.30;99.90;;;;;;5090576;28;20641;-60
2021/10/16 07:18:05;;;;;;;2.57;1.60;;;10.30;99.90;;;;;;5092821;28;20494;-59
2021/10/16 07:20:33;;;;;;;2.27;1.50;;;10.40;99.90;;;;;;5094511;28;20489;-60
2021/10/16 07:23:01;;;;;;;2.37;1.27;;;10.30;99.90;;;;;;5095053;28;20548;-60
2021/10/16 07:25:28;;;;;;;2.50;1.73;;;10.40;99.90;;;;;;5079010;28;20458;-60
2021/10/16 07:27:56;;;;;;;2.50;1.67;;;10.70;99.90;;;;;;5072305;28;20442;-59
2021/10/16 07:30:23;;;;;;;3.30;2.00;;;10.90;99.90;;;;;;5071160;28;20858;-60
2021/10/16 07:32:50;;;;;;;2.90;1.50;;;11.00;99.90;;;;;;5073600;28;20231;-59
2021/10/16 07:35:17;;;;;;;4.20;1.97;;;11.10;99.90;;;;;;5074237;28;20446;-59
2021/10/16 07:37:45;;;;;;;2.87;1.70;;;11.20;99.90;;;;;;5072822;28;20482;-59
2021/10/16 07:40:14;;;;;;;4.60;1.53;;;11.30;99.90;;;;;;5070283;28;20537;-60
2021/10/16 07:42:41;;;;;;;2.80;2.40;;;11.10;99.90;;;;;;5072001;28;20896;-59
2021/10/16 07:45:10;;;;;;;12.17;2.27;;;10.90;99.90;;;;;;5072160;28;20442;-59
2021/10/16 07:47:38;;;;;;;3.37;1.70;;;10.80;99.90;;;;;;5073452;28;20453;-59
2021/10/16 07:50:07;;;;;;;3.20;1.67;;;10.70;99.90;;;;;;5090371;28;20580;-59
2021/10/16 07:52:34;;;;;;;4.00;1.90;;;10.70;99.90;;;;;;5096274;28;20487;-59
2021/10/16 07:55:01;;;;;;;2.10;1.80;;;10.80;99.90;;;;;;5097772;28;20556;-60
2021/10/16 07:57:30;;;;;;;5.03;3.37;;;10.70;99.90;;;;;;5097252;28;20441;-59
2021/10/16 07:59:57;;;;;;;3.37;1.97;;;10.80;99.90;;;;;;5097070;28;20519;-59
2021/10/16 08:02:25;;;;;;;3.93;1.80;;;10.80;99.90;;;;;;5097231;28;20510;-60
2021/10/16 08:04:52;;;;;;;3.87;1.60;;;11.00;99.90;;;;;;5095867;28;20536;-58
2021/10/16 08:07:20;;;;;;;2.40;2.20;;;11.20;99.90;;;;;;5095511;28;20452;-59
2021/10/16 08:09:47;;;;;;;2.67;2.47;;;11.30;99.90;;;;;;5095158;28;20544;-59
2021/10/16 08:12:14;;;;;;;5.00;2.23;;;11.20;99.90;;;;;;5094411;28;20576;-60
2021/10/16 08:14:43;;;;;;;3.30;2.20;;;11.20;99.90;;;;;;5093336;28;20508;-59
2021/10/16 08:17:14;;;;;;;4.40;3.13;;;11.20;99.90;;;;;;5093838;28;20871;-59
2021/10/16 08:19:45;;;;;;;3.60;1.80;;;11.20;99.90;;;;;;5094629;28;20441;-59
2021/10/16 08:22:14;;;;;;;5.90;2.43;;;11.20;99.90;;;;;;5093847;28;20453;-59
2021/10/16 08:24:43;;;;;;;3.70;2.13;;;11.20;99.90;;;;;;5096271;28;20528;-59
2021/10/16 08:27:10;;;;;;;3.93;3.10;;;11.20;99.90;;;;;;5094379;28;20590;-59
2021/10/16 08:29:37;;;;;;;3.60;2.07;;;11.10;99.90;;;;;;5092758;28;20449;-59
2021/10/16 08:32:07;;;;;;;6.70;3.03;;;10.90;99.90;;;;;;5093631;28;20453;-59
2021/10/16 08:34:34;;;;;;;4.13;2.93;;;10.90;99.90;;;;;;5094339;28;20481;-59
2021/10/16 08:37:04;;;;;;;7.27;2.77;;;10.80;99.90;;;;;;5093469;28;20457;-59
2021/10/16 08:39:32;;;;;;;6.90;3.43;;;11.00;99.90;;;;;;5091819;28;20888;-59
2021/10/16 08:41:59;;;;;;;3.70;2.60;;;10.90;99.90;;;;;;5094214;28;20741;-59
2021/10/16 08:44:26;;;;;;;6.70;4.73;;;11.10;99.90;;;;;;5094787;28;20445;-60
2021/10/16 08:46:57;;;;;;;8.10;4.90;;;11.30;99.90;;;;;;5095547;28;20842;-60
2021/10/16 08:49:32;;;;;;;5.73;3.03;;;11.30;99.90;;;;;;5093600;28;20442;-59
2021/10/16 08:52:00;;;;;;;8.07;3.73;;;11.30;99.90;;;;;;5093227;28;20496;-59
2021/10/16 08:54:27;;;;;;;7.83;3.67;;;11.20;99.90;;;;;;5093089;28;20508;-59
2021/10/16 08:56:54;;;;;;;11.00;5.60;;;11.10;99.90;;;;;;5092217;28;20460;-59
2021/10/16 08:59:21;;;;;;;5.67;4.20;;;11.20;99.90;;;;;;5092603;28;20529;-59
2021/10/16 09:01:59;;;;;;;15.67;3.80;;;11.30;99.90;;;;;;5094115;28;20532;-60
2021/10/16 09:04:28;;;;;;;11.13;5.93;;;11.40;99.90;;;;;;5093594;28;20499;-59
2021/10/16 09:06:56;;;;;;;15.70;5.43;;;11.50;99.90;;;;;;5093357;28;20479;-59
2021/10/16 09:09:28;;;;;;;9.20;5.40;;;11.70;99.90;;;;;;5092969;28;20554;-60
2021/10/16 09:11:55;;;;;;;7.67;4.33;;;11.80;99.90;;;;;;5092733;28;20854;-60
2021/10/16 09:14:25;;;;;;;11.47;5.50;;;11.80;99.90;;;;;;5092871;28;21104;-59
2021/10/16 09:16:55;;;;;;;13.30;5.17;;;11.60;99.90;;;;;;5093527;28;20522;-59
2021/10/16 09:19:25;;;;;;;10.87;5.60;;;11.50;99.90;;;;;;5094621;28;20807;-61
2021/10/16 09:22:11;;;;;;;12.57;5.77;;;11.50;99.90;;;;;;5093323;28;20449;-59
2021/10/16 09:24:48;;;;;;;19.90;5.40;;;11.50;99.90;;;;;;5095393;28;20448;-59
2021/10/16 09:27:18;;;;;;;17.50;7.30;;;11.70;99.90;;;;;;5095083;28;20542;-60
2021/10/16 09:29:47;;;;;;;6.80;4.87;;;11.80;99.90;;;;;;5095896;28;20465;-60
2021/10/16 09:32:19;;;;;;;8.80;5.70;;;11.70;99.90;;;;;;5093336;28;20489;-59
2021/10/16 09:34:52;;;;;;;8.90;3.87;;;11.60;99.90;;;;;;5093827;28;20513;-60
2021/10/16 09:37:23;;;;;;;9.00;4.00;;;11.80;99.90;;;;;;5094618;28;20461;-59
2021/10/16 09:39:58;;;;;;;11.80;4.00;;;12.00;99.90;;;;;;5094777;28;20446;-59
2021/10/16 09:42:40;;;;;;;9.70;4.87;;;12.20;99.90;;;;;;5095922;28;20759;-59
2021/10/16 09:45:11;;;;;;;5.63;4.77;;;12.30;99.90;;;;;;5094285;28;20438;-60
2021/10/16 09:47:38;;;;;;;7.60;4.20;;;12.30;99.90;;;;;;5093829;28;20893;-60
2021/10/16 09:50:16;;;;;;;6.70;3.43;;;12.20;99.90;;;;;;5092655;28;20784;-60
2021/10/16 09:52:47;;;;;;;8.70;4.33;;;12.30;99.90;;;;;;5092018;28;20943;-59
2021/10/16 09:55:15;;;;;;;7.60;3.40;;;12.40;99.90;;;;;;5092938;28;20479;-60
2021/10/16 09:57:45;;;;;;;9.30;5.23;;;12.60;99.90;;;;;;5092345;28;20985;-60
2021/10/16 10:00:26;;;;;;;11.20;5.13;;;12.30;99.90;;;;;;5092552;28;20932;-60
2021/10/16 10:02:58;;;;;;;8.13;4.37;;;12.20;99.90;;;;;;5094666;28;20457;-60
2021/10/16 10:05:30;;;;;;;8.73;4.50;;;12.20;99.90;;;;;;5090985;28;20970;-60
2021/10/16 10:07:59;;;;;;;7.70;4.10;;;12.40;99.90;;;;;;5087152;28;20507;-59
2021/10/16 10:10:27;;;;;;;9.80;5.20;;;12.40;99.90;;;;;;5096413;28;20814;-60
2021/10/16 10:12:56;;;;;;;6.53;4.00;;;12.40;99.90;;;;;;5094584;28;20461;-60
2021/10/16 10:15:25;;;;;;;8.40;4.90;;;12.40;99.90;;;;;;5093301;28;20773;-60
2021/10/16 10:17:54;;;;;;;10.80;4.23;;;12.50;99.90;;;;;;5090844;28;20754;-61
2021/10/16 10:20:26;;;;;;;6.80;4.87;;;12.60;99.90;;;;;;5092456;28;20453;-60
2021/10/16 10:22:53;;;;;;;9.43;5.03;;;12.60;99.90;;;;;;5093853;28;20454;-60
2021/10/16 10:25:28;;;;;;;8.67;4.57;;;12.50;99.90;;;;;;5092604;28;20446;-62
2021/10/16 10:27:57;;;;;;;11.53;4.60;;;12.60;99.90;;;;;;5092203;28;20893;-60
2021/10/16 10:30:45;;;;;;;11.70;6.53;;;12.90;99.90;;;;;;5089554;28;20442;-61
2021/10/16 10:33:24;;;;;;;9.20;4.40;;;13.10;99.90;;;;;;5086432;28;20608;-61
2021/10/16 10:36:22;;;;;;;8.43;5.37;;;13.20;99.90;;;;;;5089133;28;21046;-60
2021/10/16 10:38:52;;;;;;;6.77;4.93;;;13.20;99.90;;;;;;5086160;28;20456;-59
2021/10/16 10:41:36;;;;;;;6.40;5.60;;;13.20;99.90;;;;;;5089558;28;20438;-59
2021/10/16 10:44:06;;;;;;;9.47;6.20;;;13.40;99.90;;;;;;5087488;28;20469;-59
2021/10/16 10:46:34;;;;;;;13.00;5.87;;;13.20;99.90;;;;;;5090614;28;20430;-59
2021/10/16 10:49:09;;;;;;;7.37;3.67;;;13.40;99.90;;;;;;5089641;28;20769;-59
2021/10/16 10:51:42;;;;;;;8.90;5.03;;;13.90;99.90;;;;;;5090129;28;21061;-60
2021/10/16 10:54:12;;;;;;;6.60;5.07;;;14.20;99.90;;;;;;5092108;28;20484;-60
2021/10/16 10:56:45;;;;;;;9.23;4.80;;;14.40;99.90;;;;;;5092139;28;20514;-60
2021/10/16 10:59:16;;;;;;;9.10;5.20;;;14.30;99.90;;;;;;5092490;28;20469;-60
2021/10/16 11:01:52;;;;;;;12.43;8.13;;;14.30;99.90;;;;;;5091534;28;20746;-61
2021/10/16 11:04:55;;;;;;;9.63;5.27;;;14.30;99.90;;;;;;5085677;28;20461;-61
2021/10/16 11:07:39;;;;;;;10.17;5.50;;;14.10;99.90;;;;;;5083223;28;20888;-62
2021/10/16 11:10:09;;;;;;;11.47;7.37;;;14.00;99.90;;;;;;5092995;28;20446;-61
2021/10/16 11:12:40;;;;;;;8.30;5.13;;;13.90;99.90;;;;;;5092932;28;20518;-62
2021/10/16 11:15:12;;;;;;;7.70;4.70;;;14.10;99.90;;;;;;5089720;28;20482;-61
2021/10/16 11:17:42;;;;;;;8.80;5.87;;;14.40;99.90;;;;;;5075374;28;20958;-62
2021/10/16 11:20:16;;;;;;;9.60;6.83;;;14.80;99.90;;;;;;5090255;28;20457;-61
2021/10/16 11:22:47;;;;;;;10.23;5.40;;;14.90;99.90;;;;;;5093511;28;20495;-61
2021/10/16 11:25:20;;;;;;;8.85;5.90;;;14.90;99.90;;;;;;5095500;28;20491;-61
2021/10/16 11:28:08;;;;;;;10.33;4.53;;;14.70;99.90;;;;;;5090739;28;20261;-61
2021/10/16 11:30:38;;;;;;;8.30;6.23;;;14.80;99.90;;;;;;5092075;28;20446;-61
2021/10/16 11:33:12;;;;;;;8.63;6.10;;;15.00;99.90;;;;;;5092497;28;20445;-61
2021/10/16 11:35:41;;;;;;;8.87;4.73;;;14.80;99.90;;;;;;5092391;28;20565;-61
2021/10/16 11:38:09;;;;;;;7.27;4.70;;;14.70;99.90;;;;;;5093921;28;20561;-61
2021/10/16 11:40:42;;;;;;;8.37;4.47;;;14.60;99.90;;;;;;5094037;28;20449;-61
2021/10/16 11:43:16;;;;;;;14.67;6.97;;;14.70;99.90;;;;;;5082917;28;20488;-61
2021/10/16 11:48:28;;;;;;;6.90;4.80;;;14.30;99.90;;;;;;5091082;28;20466;-61
2021/10/16 11:50:59;;;;;;;5.57;4.10;;;14.10;99.90;;;;;;5075975;28;20453;-61
2021/10/16 11:53:28;;;;;;;8.20;5.40;;;14.30;99.90;;;;;;5081366;28;20445;-61
2021/10/16 11:55:59;;;;;;;11.03;5.30;;;14.30;99.90;;;;;;5095080;28;21072;-61
2021/10/16 11:58:31;;;;;;;9.93;3.53;;;14.20;99.90;;;;;;5086856;28;20749;-61
2021/10/16 12:01:01;;;;;;;6.40;3.70;;;14.20;99.90;;;;;;5074747;28;20474;-61
2021/10/16 12:03:31;;;;;;;5.80;4.17;;;14.40;99.90;;;;;;5078214;28;20449;-61
2021/10/16 12:06:07;;;;;;;7.03;5.70;;;14.60;99.90;;;;;;5095370;28;20444;-60
2021/10/16 12:08:43;;;;;;;8.87;4.83;;;14.50;99.90;;;;;;5094537;28;20545;-61
2021/10/16 12:11:17;;;;;;;7.87;4.87;;;14.50;99.90;;;;;;5096328;28;20491;-61
2021/10/16 12:13:56;;;;;;;9.83;4.90;;;14.60;99.90;;;;;;5096503;28;20547;-61
2021/10/16 12:16:27;;;;;;;9.53;5.17;;;14.40;99.90;;;;;;5080242;28;20500;-61
2021/10/16 12:19:00;;;;;;;4.20;3.00;;;14.20;99.90;;;;;;5097168;28;20557;-61
2021/10/16 12:21:39;;;;;;;5.30;3.83;;;14.00;99.90;;;;;;5095289;28;21062;-61
2021/10/16 12:24:12;;;;;;;5.93;4.03;;;14.30;99.90;;;;;;5080204;28;20454;-60
2021/10/16 12:26:44;;;;;;;7.13;4.57;;;14.50;99.90;;;;;;5077397;28;20451;-60
2021/10/16 12:29:31;;;;;;;7.73;5.33;;;14.60;99.90;;;;;;5075917;28;20545;-60
2021/10/16 12:31:59;;;;;;;7.83;4.00;;;14.90;99.90;;;;;;5084186;28;20445;-61
2021/10/16 12:34:34;;;;;;;6.83;4.23;;;14.90;99.90;;;;;;5095379;28;20477;-61
2021/10/16 12:37:04;;;;;;;7.33;4.50;;;14.80;99.90;;;;;;5096113;28;20445;-60
2021/10/16 12:39:35;;;;;;;6.03;3.80;;;14.30;99.90;;;;;;5095932;28;20445;-61
2021/10/16 12:42:13;;;;;;;6.50;3.60;;;14.10;99.90;;;;;;5095731;28;20499;-61
2021/10/16 12:44:44;;;;;;;5.47;3.03;;;14.20;99.90;;;;;;5096282;28;20903;-61
2021/10/16 12:47:14;;;;;;;4.10;3.20;;;14.30;99.90;;;;;;5096569;28;20529;-61
2021/10/16 12:49:46;;;;;;;5.03;2.53;;;14.60;99.90;;;;;;5094181;28;20529;-61
2021/10/16 12:52:28;;;;;;;5.30;3.97;;;14.80;99.90;;;;;;5093103;28;20446;-61
2021/10/16 12:55:04;;;;;;;5.17;3.00;;;15.20;99.90;;;;;;5093717;28;20936;-61
2021/10/16 12:57:31;;;;;;;8.53;4.50;;;15.30;99.90;;;;;;5094617;28;20539;-61
2021/10/16 13:00:02;;;;;;;6.37;2.83;;;15.40;99.90;;;;;;5093707;28;20456;-61